Time;durP1;ratioP1;P1;durP2;ratioP2;P2;SDS_P1;SDS_P2;PMS_P1;PMS_P2;Temp;Humidity;BMP_temperature;BMP_pressure;BME280_temperature;BME280_humidity;BME280_pressure;Samples;Min_cycle;Max_cycle;Signal;HPM_P1;HPM_P2
2022/08/22 00:00:11;;;;;;;;;;;;;;;;;;2114759;28;20251;-46
2022/08/22 00:01:14;;;;;;;;;;;;;;;;;;2114895;28;20335;-45
2022/08/22 00:02:15;;;;;;;;;;;;;;;;;;2114697;28;20018;-45
2022/08/22 00:03:15;;;;;;;;;;;;;;;;;;2114851;28;20304;-45
2022/08/22 00:04:20;;;;;;;;;;;;;;;;;;2114772;28;19928;-45
2022/08/22 00:05:20;;;;;;;;;;;;;;;;;;2114710;28;20497;-45
2022/08/22 00:06:21;;;;;;;;;;;;;;;;;;2114382;28;19923;-45
2022/08/22 00:07:22;;;;;;;;;;;;;;;;;;2114687;28;20451;-45
2022/08/22 00:08:23;;;;;;;;;;;;;;;;;;2114698;28;19958;-45
2022/08/22 00:09:28;;;;;;;;;;;;;;;;;;2114750;28;20022;-45
2022/08/22 00:10:30;;;;;;;;;;;;;;;;;;2114681;28;19935;-45
2022/08/22 00:11:31;;;;;;;;;;;;;;;;;;2109832;28;19924;-45
2022/08/22 00:12:32;;;;;;;;;;;;;;;;;;2106255;28;19932;-45
2022/08/22 00:13:32;;;;;;;;;;;;;;;;;;2106354;28;19931;-47
2022/08/22 00:14:34;;;;;;;;;;;;;;;;;;2106296;28;19930;-46
2022/08/22 00:15:34;;;;;;;;;;;;;;;;;;2106229;28;19924;-46
2022/08/22 00:16:44;;;;;;;;;;;;;;;;;;2106359;28;19928;-45
2022/08/22 00:17:45;;;;;;;;;;;;;;;;;;2106191;28;19924;-44
2022/08/22 00:18:46;;;;;;;;;;;;;;;;;;2106363;28;20258;-47
2022/08/22 00:19:46;;;;;;;;;;;;;;;;;;2106297;28;20006;-45
2022/08/22 00:20:47;;;;;;;;;;;;;;;;;;2106312;28;19924;-45
2022/08/22 00:21:48;;;;;;;;;;;;;;;;;;2106151;28;20018;-46
2022/08/22 00:22:49;;;;;;;;;;;;;;;;;;2106308;28;19934;-46
2022/08/22 00:23:51;;;;;;;;;;;;;;;;;;2106111;28;19977;-44
2022/08/22 00:24:52;;;;;;;;;;;;;;;;;;2106194;28;20083;-45
2022/08/22 00:25:53;;;;;;;;;;;;;;;;;;2106335;28;20002;-45
2022/08/22 00:26:54;;;;;;;;;;;;;;;;;;2106112;28;19931;-46
2022/08/22 00:27:55;;;;;;;;;;;;;;;;;;2106398;28;20016;-44
2022/08/22 00:28:56;;;;;;;;;;;;;;;;;;2106532;28;19924;-45
2022/08/22 00:29:56;;;;;;;;;;;;;;;;;;2106292;28;19924;-45
2022/08/22 00:30:57;;;;;;;;;;;;;;;;;;2106104;28;20308;-47
2022/08/22 00:32:00;;;;;;;;;;;;;;;;;;2105984;28;20021;-44
2022/08/22 00:33:01;;;;;;;;;;;;;;;;;;2106109;28;20381;-44
2022/08/22 00:34:02;;;;;;;;;;;;;;;;;;2106285;28;19924;-44
2022/08/22 00:35:04;;;;;;;;;;;;;;;;;;2106267;28;19924;-45
2022/08/22 00:36:05;;;;;;;;;;;;;;;;;;2106165;28;20464;-44
2022/08/22 00:37:06;;;;;;;;;;;;;;;;;;2106080;28;19930;-45
2022/08/22 00:38:07;;;;;;;;;;;;;;;;;;2106155;28;19929;-45
2022/08/22 00:39:08;;;;;;;;;;;;;;;;;;2106035;28;20365;-44
2022/08/22 00:40:09;;;;;;;;;;;;;;;;;;2106136;28;19928;-44
2022/08/22 00:41:10;;;;;;;;;;;;;;;;;;2106352;28;19924;-46
2022/08/22 00:42:11;;;;;;;;;;;;;;;;;;2106091;28;19959;-44
2022/08/22 00:43:12;;;;;;;;;;;;;;;;;;2113693;28;20408;-44
2022/08/22 00:44:12;;;;;;;;;;;;;;;;;;2114480;28;19924;-45
2022/08/22 00:45:13;;;;;;;;;;;;;;;;;;2114435;28;20333;-44
2022/08/22 00:46:14;;;;;;;;;;;;;;;;;;2114466;28;20387;-44
2022/08/22 00:47:15;;;;;;;;;;;;;;;;;;2114481;28;19924;-43
2022/08/22 00:48:16;;;;;;;;;;;;;;;;;;2114540;28;19976;-44
2022/08/22 00:49:17;;;;;;;;;;;;;;;;;;2114505;28;20438;-44
2022/08/22 00:50:18;;;;;;;;;;;;;;;;;;2114512;28;19959;-44
2022/08/22 00:51:19;;;;;;;;;;;;;;;;;;2114399;28;20412;-44
2022/08/22 00:52:20;;;;;;;;;;;;;;;;;;2114497;28;19928;-44
2022/08/22 00:53:21;;;;;;;;;;;;;;;;;;2114430;28;20537;-45
2022/08/22 00:54:22;;;;;;;;;;;;;;;;;;2114552;28;19966;-44
2022/08/22 00:55:23;;;;;;;;;;;;;;;;;;2114548;28;19924;-45
2022/08/22 00:56:24;;;;;;;;;;;;;;;;;;2114551;28;20015;-44
2022/08/22 00:57:25;;;;;;;;;;;;;;;;;;2114552;28;20331;-45
2022/08/22 00:58:25;;;;;;;;;;;;;;;;;;2114421;28;20006;-44
2022/08/22 00:59:26;;;;;;;;;;;;;;;;;;2114604;28;20091;-44
2022/08/22 01:00:27;;;;;;;;;;;;;;;;;;2114430;28;20297;-44
2022/08/22 01:01:28;;;;;;;;;;;;;;;;;;2114513;28;19924;-44
2022/08/22 01:02:30;;;;;;;;;;;;;;;;;;2114365;28;20280;-44
2022/08/22 01:03:31;;;;;;;;;;;;;;;;;;2114304;28;20433;-45
2022/08/22 01:04:32;;;;;;;;;;;;;;;;;;2114552;28;20000;-44
2022/08/22 01:05:33;;;;;;;;;;;;;;;;;;2114584;28;19924;-44
2022/08/22 01:06:34;;;;;;;;;;;;;;;;;;2114325;28;20027;-44
2022/08/22 01:07:35;;;;;;;;;;;;;;;;;;2114601;28;19928;-44
2022/08/22 01:08:38;;;;;;;;;;;;;;;;;;2114507;28;20147;-45
2022/08/22 01:09:40;;;;;;;;;;;;;;;;;;2114243;28;19959;-44
2022/08/22 01:10:41;;;;;;;;;;;;;;;;;;2114381;28;20369;-46
2022/08/22 01:11:42;;;;;;;;;;;;;;;;;;2107992;28;20440;-44
2022/08/22 01:12:43;;;;;;;;;;;;;;;;;;2105985;28;19962;-44
2022/08/22 01:13:44;;;;;;;;;;;;;;;;;;2105912;28;19928;-45
2022/08/22 01:14:44;;;;;;;;;;;;;;;;;;2105977;28;20080;-43
2022/08/22 01:15:45;;;;;;;;;;;;;;;;;;2105867;28;19924;-43
2022/08/22 01:16:46;;;;;;;;;;;;;;;;;;2106352;28;19966;-45
2022/08/22 01:17:47;;;;;;;;;;;;;;;;;;2106036;28;20434;-45
2022/08/22 01:18:49;;;;;;;;;;;;;;;;;;2106372;28;20446;-45
2022/08/22 01:19:50;;;;;;;;;;;;;;;;;;2107506;28;20369;-45
2022/08/22 01:20:50;;;;;;;;;;;;;;;;;;2107365;28;19924;-46
2022/08/22 01:21:51;;;;;;;;;;;;;;;;;;2107174;28;19986;-45
2022/08/22 01:22:52;;;;;;;;;;;;;;;;;;2107357;28;20395;-45
2022/08/22 01:23:55;;;;;;;;;;;;;;;;;;2107360;28;20011;-45
2022/08/22 01:26:15;;;;;;;;;;;;;;;;;;2107400;28;19951;-45
2022/08/22 01:27:15;;;;;;;;;;;;;;;;;;2107277;28;19924;-44
2022/08/22 01:28:16;;;;;;;;;;;;;;;;;;2107462;28;19924;-44
2022/08/22 01:29:17;;;;;;;;;;;;;;;;;;2107281;28;19967;-44
2022/08/22 01:30:18;;;;;;;;;;;;;;;;;;2107440;28;19924;-43
2022/08/22 01:31:19;;;;;;;;;;;;;;;;;;2107168;28;19963;-44
2022/08/22 01:32:20;;;;;;;;;;;;;;;;;;2107418;28;19924;-46
2022/08/22 01:33:21;;;;;;;;;;;;;;;;;;2107250;28;19972;-44
2022/08/22 01:34:22;;;;;;;;;;;;;;;;;;2107248;28;19978;-44
2022/08/22 01:35:22;;;;;;;;;;;;;;;;;;2107396;28;19924;-44
2022/08/22 01:36:23;;;;;;;;;;;;;;;;;;2107220;28;19981;-46
2022/08/22 01:37:24;;;;;;;;;;;;;;;;;;2107248;28;19924;-46
2022/08/22 01:38:25;;;;;;;;;;;;;;;;;;2107343;28;19969;-45
2022/08/22 01:39:26;;;;;;;;;;;;;;;;;;2114978;28;19927;-45
2022/08/22 01:40:28;;;;;;;;;;;;;;;;;;2115622;28;20290;-45
2022/08/22 01:41:29;;;;;;;;;;;;;;;;;;2115746;28;20045;-45
2022/08/22 01:42:30;;;;;;;;;;;;;;;;;;2115623;28;19971;-45
2022/08/22 01:43:30;;;;;;;;;;;;;;;;;;2115612;28;20006;-45
2022/08/22 01:44:51;;;;;;;;;;;;;;;;;;2115612;28;20380;-44
2022/08/22 01:45:52;;;;;;;;;;;;;;;;;;2115650;28;19927;-45
2022/08/22 01:46:53;;;;;;;;;;;;;;;;;;2115639;28;19923;-45
2022/08/22 01:47:54;;;;;;;;;;;;;;;;;;2115627;28;20248;-45
2022/08/22 01:48:55;;;;;;;;;;;;;;;;;;2115657;28;19930;-45
2022/08/22 01:49:56;;;;;;;;;;;;;;;;;;2115600;28;19931;-45
2022/08/22 01:50:57;;;;;;;;;;;;;;;;;;2115624;28;19928;-45
2022/08/22 01:51:57;;;;;;;;;;;;;;;;;;2115424;28;19963;-45
2022/08/22 01:52:58;;;;;;;;;;;;;;;;;;2115742;28;19948;-45
2022/08/22 01:53:59;;;;;;;;;;;;;;;;;;2115679;28;20034;-46
2022/08/22 01:55:00;;;;;;;;;;;;;;;;;;2115623;28;19923;-46
2022/08/22 01:56:01;;;;;;;;;;;;;;;;;;2115537;28;20003;-44
2022/08/22 01:57:02;;;;;;;;;;;;;;;;;;2115440;28;20385;-45
2022/08/22 01:58:03;;;;;;;;;;;;;;;;;;2115784;28;19924;-45
2022/08/22 01:59:04;;;;;;;;;;;;;;;;;;2115590;28;20014;-45
2022/08/22 02:00:08;;;;;;;;;;;;;;;;;;2115600;28;19924;-44
2022/08/22 02:01:09;;;;;;;;;;;;;;;;;;2115390;28;20011;-46
2022/08/22 02:02:10;;;;;;;;;;;;;;;;;;2115683;28;19930;-44
2022/08/22 02:03:12;;;;;;;;;;;;;;;;;;2115571;28;19959;-49
2022/08/22 02:04:13;;;;;;;;;;;;;;;;;;2115526;28;19946;-45
2022/08/22 02:05:14;;;;;;;;;;;;;;;;;;2115504;28;20344;-46
2022/08/22 02:06:15;;;;;;;;;;;;;;;;;;2115584;28;19938;-45
2022/08/22 02:07:16;;;;;;;;;;;;;;;;;;2115435;28;19951;-45
2022/08/22 02:08:16;;;;;;;;;;;;;;;;;;2115480;28;20359;-45
2022/08/22 02:09:17;;;;;;;;;;;;;;;;;;2115606;28;19923;-46
2022/08/22 02:10:18;;;;;;;;;;;;;;;;;;2115373;28;20388;-45
2022/08/22 02:11:19;;;;;;;;;;;;;;;;;;2112337;28;19940;-45
2022/08/22 02:12:20;;;;;;;;;;;;;;;;;;2106958;28;20452;-45
2022/08/22 02:13:22;;;;;;;;;;;;;;;;;;2106869;28;20373;-45
2022/08/22 02:14:23;;;;;;;;;;;;;;;;;;2107114;28;20009;-45
2022/08/22 02:15:24;;;;;;;;;;;;;;;;;;2107199;28;20010;-45
2022/08/22 02:16:25;;;;;;;;;;;;;;;;;;2106802;28;20355;-46
2022/08/22 02:17:26;;;;;;;;;;;;;;;;;;2107144;28;19924;-45
2022/08/22 02:18:26;;;;;;;;;;;;;;;;;;2107001;28;19970;-46
2022/08/22 02:19:28;;;;;;;;;;;;;;;;;;2106900;28;20531;-45
2022/08/22 02:20:28;;;;;;;;;;;;;;;;;;2106954;28;19924;-45
2022/08/22 02:21:30;;;;;;;;;;;;;;;;;;2107102;28;19931;-45
2022/08/22 02:22:30;;;;;;;;;;;;;;;;;;2107008;28;19970;-44
2022/08/22 02:23:31;;;;;;;;;;;;;;;;;;2106870;28;19993;-44
2022/08/22 02:24:32;;;;;;;;;;;;;;;;;;2107130;28;19924;-45
2022/08/22 02:25:33;;;;;;;;;;;;;;;;;;2106842;28;20326;-47
2022/08/22 02:26:34;;;;;;;;;;;;;;;;;;2107080;28;20002;-45
2022/08/22 02:27:35;;;;;;;;;;;;;;;;;;2106928;28;20377;-44
2022/08/22 02:28:36;;;;;;;;;;;;;;;;;;2107060;28;19934;-46
2022/08/22 02:29:37;;;;;;;;;;;;;;;;;;2106840;28;19924;-46
2022/08/22 02:30:38;;;;;;;;;;;;;;;;;;2106910;28;20014;-45
2022/08/22 02:31:39;;;;;;;;;;;;;;;;;;2106828;28;19934;-47
2022/08/22 02:32:41;;;;;;;;;;;;;;;;;;2106877;28;20341;-44
2022/08/22 02:33:42;;;;;;;;;;;;;;;;;;2106936;28;19971;-45
2022/08/22 02:34:43;;;;;;;;;;;;;;;;;;2107035;28;20065;-44
2022/08/22 02:35:44;;;;;;;;;;;;;;;;;;2114812;28;19981;-44
2022/08/22 02:36:45;;;;;;;;;;;;;;;;;;2115265;28;20018;-44
2022/08/22 02:37:46;;;;;;;;;;;;;;;;;;2115412;28;20006;-44
2022/08/22 02:38:47;;;;;;;;;;;;;;;;;;2115279;28;19928;-45
2022/08/22 02:39:48;;;;;;;;;;;;;;;;;;2115450;28;19923;-46
2022/08/22 02:40:49;;;;;;;;;;;;;;;;;;2115483;28;19969;-45
2022/08/22 02:41:50;;;;;;;;;;;;;;;;;;2115244;28;19927;-45
2022/08/22 02:42:50;;;;;;;;;;;;;;;;;;2115210;28;19924;-46
2022/08/22 02:43:51;;;;;;;;;;;;;;;;;;2115211;28;19931;-46
2022/08/22 02:44:52;;;;;;;;;;;;;;;;;;2115419;28;19923;-46
2022/08/22 02:45:53;;;;;;;;;;;;;;;;;;2115475;28;19923;-45
2022/08/22 02:46:54;;;;;;;;;;;;;;;;;;2115075;28;20018;-45
2022/08/22 02:47:55;;;;;;;;;;;;;;;;;;2115305;28;19930;-46
2022/08/22 02:48:56;;;;;;;;;;;;;;;;;;2115222;28;20369;-46
2022/08/22 02:49:57;;;;;;;;;;;;;;;;;;2115317;28;19924;-46
2022/08/22 02:50:58;;;;;;;;;;;;;;;;;;2115145;28;19963;-45
2022/08/22 02:52:01;;;;;;;;;;;;;;;;;;2115167;28;19928;-45
2022/08/22 02:53:01;;;;;;;;;;;;;;;;;;2115131;28;19924;-45
2022/08/22 02:54:02;;;;;;;;;;;;;;;;;;2115192;28;20333;-46
2022/08/22 02:55:03;;;;;;;;;;;;;;;;;;2115188;28;20287;-46
2022/08/22 02:56:05;;;;;;;;;;;;;;;;;;2115078;28;19924;-45
2022/08/22 02:57:05;;;;;;;;;;;;;;;;;;2115253;28;20452;-45
2022/08/22 02:58:06;;;;;;;;;;;;;;;;;;2115241;28;19959;-46
2022/08/22 02:59:07;;;;;;;;;;;;;;;;;;2115039;28;19928;-45
2022/08/22 03:00:12;;;;;;;;;;;;;;;;;;2115212;28;19943;-45
2022/08/22 03:01:28;;;;;;;;;;;;;;;;;;2115086;28;20016;-46
2022/08/22 03:02:29;;;;;;;;;;;;;;;;;;2115225;28;19924;-46
2022/08/22 03:03:30;;;;;;;;;;;;;;;;;;2115269;28;20409;-45
2022/08/22 03:04:31;;;;;;;;;;;;;;;;;;2115094;28;20018;-45
2022/08/22 03:05:32;;;;;;;;;;;;;;;;;;2115308;28;20300;-45
2022/08/22 03:06:33;;;;;;;;;;;;;;;;;;2115184;28;19992;-45
2022/08/22 03:07:34;;;;;;;;;;;;;;;;;;2115263;28;19928;-45
2022/08/22 03:08:34;;;;;;;;;;;;;;;;;;2115121;28;19923;-46
2022/08/22 03:09:36;;;;;;;;;;;;;;;;;;2115172;28;20014;-44
2022/08/22 03:10:37;;;;;;;;;;;;;;;;;;2115045;28;20085;-44
2022/08/22 03:11:38;;;;;;;;;;;;;;;;;;2109376;28;19946;-46
2022/08/22 03:12:38;;;;;;;;;;;;;;;;;;2106729;28;19924;-45
2022/08/22 03:13:40;;;;;;;;;;;;;;;;;;2106578;28;19932;-44
2022/08/22 03:14:41;;;;;;;;;;;;;;;;;;2106693;28;19924;-44
2022/08/22 03:15:42;;;;;;;;;;;;;;;;;;2106602;28;20377;-44
2022/08/22 03:16:48;;;;;;;;;;;;;;;;;;2106751;28;19924;-44
2022/08/22 03:17:49;;;;;;;;;;;;;;;;;;2106583;28;19977;-44
2022/08/22 03:18:50;;;;;;;;;;;;;;;;;;2106707;28;19963;-45
2022/08/22 03:19:51;;;;;;;;;;;;;;;;;;2106632;28;20415;-44
2022/08/22 03:20:52;;;;;;;;;;;;;;;;;;2106638;28;19973;-44
2022/08/22 03:21:53;;;;;;;;;;;;;;;;;;2106436;28;19924;-45
2022/08/22 03:22:54;;;;;;;;;;;;;;;;;;2106590;28;19971;-44
2022/08/22 03:23:55;;;;;;;;;;;;;;;;;;2106462;28;19964;-44
2022/08/22 03:24:56;;;;;;;;;;;;;;;;;;2106931;28;19971;-45
2022/08/22 03:25:56;;;;;;;;;;;;;;;;;;2106710;28;20011;-45
2022/08/22 03:26:57;;;;;;;;;;;;;;;;;;2106340;28;19924;-45
2022/08/22 03:27:58;;;;;;;;;;;;;;;;;;2106808;28;19931;-44
2022/08/22 03:28:59;;;;;;;;;;;;;;;;;;2106799;28;19928;-44
2022/08/22 03:30:00;;;;;;;;;;;;;;;;;;2106564;28;19924;-45
2022/08/22 03:31:01;;;;;;;;;;;;;;;;;;2106419;28;20377;-44
2022/08/22 03:32:02;;;;;;;;;;;;;;;;;;2114776;28;19924;-45
2022/08/22 03:33:03;;;;;;;;;;;;;;;;;;2115028;28;19949;-44
2022/08/22 03:34:05;;;;;;;;;;;;;;;;;;2115078;28;20010;-46
2022/08/22 03:35:06;;;;;;;;;;;;;;;;;;2115092;28;20010;-46
2022/08/22 03:36:06;;;;;;;;;;;;;;;;;;2115223;28;19924;-44
2022/08/22 03:37:07;;;;;;;;;;;;;;;;;;2114826;28;20404;-44
2022/08/22 03:38:08;;;;;;;;;;;;;;;;;;2115108;28;20122;-46
2022/08/22 03:39:09;;;;;;;;;;;;;;;;;;2114893;28;20034;-45
2022/08/22 03:40:17;;;;;;;;;;;;;;;;;;2114962;28;19966;-45
2022/08/22 03:41:18;;;;;;;;;;;;;;;;;;2114221;28;20288;-45
2022/08/22 03:42:19;;;;;;;;;;;;;;;;;;2114823;28;19935;-45
2022/08/22 03:43:20;;;;;;;;;;;;;;;;;;2114804;28;20010;-46
2022/08/22 03:44:21;;;;;;;;;;;;;;;;;;2114925;28;19930;-45
2022/08/22 03:45:22;;;;;;;;;;;;;;;;;;2115018;28;20308;-45
2022/08/22 03:46:22;;;;;;;;;;;;;;;;;;2114845;28;19962;-45
2022/08/22 03:47:23;;;;;;;;;;;;;;;;;;2114947;28;19931;-45
2022/08/22 03:48:24;;;;;;;;;;;;;;;;;;2114950;28;20349;-45
2022/08/22 03:49:25;;;;;;;;;;;;;;;;;;2114775;28;19968;-45
2022/08/22 03:50:26;;;;;;;;;;;;;;;;;;2115186;28;19976;-47
2022/08/22 03:51:27;;;;;;;;;;;;;;;;;;2115042;28;19927;-44
2022/08/22 03:52:28;;;;;;;;;;;;;;;;;;2114771;28;20330;-44
2022/08/22 03:53:29;;;;;;;;;;;;;;;;;;2114827;28;19927;-44
2022/08/22 03:54:30;;;;;;;;;;;;;;;;;;2114773;28;19927;-44
2022/08/22 03:55:31;;;;;;;;;;;;;;;;;;2115073;28;19931;-45
2022/08/22 03:56:31;;;;;;;;;;;;;;;;;;2114680;28;20420;-45
2022/08/22 03:57:32;;;;;;;;;;;;;;;;;;2114792;28;20006;-45
2022/08/22 03:58:33;;;;;;;;;;;;;;;;;;2114884;28;19923;-45
2022/08/22 03:59:34;;;;;;;;;;;;;;;;;;2114908;28;19966;-44
2022/08/22 04:00:35;;;;;;;;;;;;;;;;;;2114637;28;19924;-44
2022/08/22 04:01:36;;;;;;;;;;;;;;;;;;2114826;28;19963;-44
2022/08/22 04:02:37;;;;;;;;;;;;;;;;;;2114799;28;20428;-45
2022/08/22 04:03:45;;;;;;;;;;;;;;;;;;2114917;28;19951;-47
2022/08/22 04:04:46;;;;;;;;;;;;;;;;;;2114768;28;19927;-44
2022/08/22 04:05:46;;;;;;;;;;;;;;;;;;2114650;28;19924;-46
2022/08/22 04:06:48;;;;;;;;;;;;;;;;;;2114784;28;19955;-45
2022/08/22 04:07:49;;;;;;;;;;;;;;;;;;2114785;28;20010;-44
2022/08/22 04:08:49;;;;;;;;;;;;;;;;;;2114613;28;20364;-45
2022/08/22 04:09:50;;;;;;;;;;;;;;;;;;2114659;28;19924;-44
2022/08/22 04:10:51;;;;;;;;;;;;;;;;;;2114862;28;20401;-45
2022/08/22 04:11:52;;;;;;;;;;;;;;;;;;2106894;28;19928;-46
2022/08/22 04:12:53;;;;;;;;;;;;;;;;;;2106337;28;19967;-46
2022/08/22 04:13:54;;;;;;;;;;;;;;;;;;2106186;28;20015;-45
2022/08/22 04:14:55;;;;;;;;;;;;;;;;;;2106400;28;19959;-46
2022/08/22 04:15:56;;;;;;;;;;;;;;;;;;2106325;28;20288;-45
2022/08/22 04:16:56;;;;;;;;;;;;;;;;;;2106169;28;19924;-45
2022/08/22 04:17:57;;;;;;;;;;;;;;;;;;2106379;28;19925;-45
2022/08/22 04:18:58;;;;;;;;;;;;;;;;;;2106249;28;19924;-45
2022/08/22 04:20:00;;;;;;;;;;;;;;;;;;2106388;28;20022;-46
2022/08/22 04:21:01;;;;;;;;;;;;;;;;;;2106188;28;20082;-46
2022/08/22 04:22:02;;;;;;;;;;;;;;;;;;2106235;28;19936;-45
2022/08/22 04:23:03;;;;;;;;;;;;;;;;;;2106157;28;20018;-46
2022/08/22 04:24:05;;;;;;;;;;;;;;;;;;2106213;28;20015;-46
2022/08/22 04:25:05;;;;;;;;;;;;;;;;;;2106140;28;20490;-45
2022/08/22 04:26:08;;;;;;;;;;;;;;;;;;2106244;28;19969;-45
2022/08/22 04:27:12;;;;;;;;;;;;;;;;;;2106319;28;19932;-45
2022/08/22 04:28:13;;;;;;;;;;;;;;;;;;2113959;28;20064;-45
2022/08/22 04:29:14;;;;;;;;;;;;;;;;;;2114586;28;19949;-45
2022/08/22 04:30:15;;;;;;;;;;;;;;;;;;2114664;28;20010;-45
2022/08/22 04:31:16;;;;;;;;;;;;;;;;;;2114522;28;19969;-45
2022/08/22 04:32:17;;;;;;;;;;;;;;;;;;2114903;28;19927;-45
2022/08/22 04:33:17;;;;;;;;;;;;;;;;;;2114663;28;19959;-45
2022/08/22 04:34:18;;;;;;;;;;;;;;;;;;2114792;28;19924;-45
2022/08/22 04:35:19;;;;;;;;;;;;;;;;;;2114599;28;19928;-46
2022/08/22 04:36:20;;;;;;;;;;;;;;;;;;2114587;28;19923;-44
2022/08/22 04:37:21;;;;;;;;;;;;;;;;;;2114854;28;20455;-45
2022/08/22 04:38:22;;;;;;;;;;;;;;;;;;2114531;28;19923;-45
2022/08/22 04:39:22;;;;;;;;;;;;;;;;;;2114582;28;19931;-46
2022/08/22 04:40:23;;;;;;;;;;;;;;;;;;2114475;28;19985;-46
2022/08/22 04:41:24;;;;;;;;;;;;;;;;;;2114642;28;19931;-46
2022/08/22 04:42:25;;;;;;;;;;;;;;;;;;2114721;28;19924;-45
2022/08/22 04:43:33;;;;;;;;;;;;;;;;;;2114488;28;19924;-46
2022/08/22 04:44:34;;;;;;;;;;;;;;;;;;2114684;28;19930;-45
2022/08/22 04:45:34;;;;;;;;;;;;;;;;;;2114524;28;20010;-45
2022/08/22 04:46:36;;;;;;;;;;;;;;;;;;2114468;28;20385;-46
2022/08/22 04:47:37;;;;;;;;;;;;;;;;;;2114552;28;20365;-45
2022/08/22 04:48:39;;;;;;;;;;;;;;;;;;2114642;28;19934;-47
2022/08/22 04:49:40;;;;;;;;;;;;;;;;;;2114755;28;20105;-46
2022/08/22 04:50:41;;;;;;;;;;;;;;;;;;2114745;28;20338;-46
2022/08/22 04:51:44;;;;;;;;;;;;;;;;;;2114350;28;19931;-45
2022/08/22 04:52:45;;;;;;;;;;;;;;;;;;2114424;28;20068;-45
2022/08/22 04:53:46;;;;;;;;;;;;;;;;;;2115321;28;19931;-44
2022/08/22 04:54:47;;;;;;;;;;;;;;;;;;2115864;28;20003;-44
2022/08/22 04:55:47;;;;;;;;;;;;;;;;;;2115953;28;19924;-44
2022/08/22 04:56:48;;;;;;;;;;;;;;;;;;2115894;28;19927;-43
2022/08/22 04:57:49;;;;;;;;;;;;;;;;;;2115900;28;19986;-44
2022/08/22 04:58:50;;;;;;;;;;;;;;;;;;2116003;28;19930;-45
2022/08/22 04:59:51;;;;;;;;;;;;;;;;;;2116064;28;20331;-44
2022/08/22 05:00:52;;;;;;;;;;;;;;;;;;2115915;28;20185;-43
2022/08/22 05:01:53;;;;;;;;;;;;;;;;;;2115839;28;20561;-44
2022/08/22 05:02:54;;;;;;;;;;;;;;;;;;2115866;28;19931;-43
2022/08/22 05:03:55;;;;;;;;;;;;;;;;;;2116079;28;20011;-46
2022/08/22 05:04:57;;;;;;;;;;;;;;;;;;2115900;28;19924;-44
2022/08/22 05:05:58;;;;;;;;;;;;;;;;;;2115943;28;20018;-45
2022/08/22 05:06:59;;;;;;;;;;;;;;;;;;2115886;28;20014;-44
2022/08/22 05:08:00;;;;;;;;;;;;;;;;;;2115828;28;20019;-45
2022/08/22 05:09:01;;;;;;;;;;;;;;;;;;2115860;28;20467;-44
2022/08/22 05:10:02;;;;;;;;;;;;;;;;;;2116001;28;20007;-44
2022/08/22 05:11:12;;;;;;;;;;;;;;;;;;2113983;28;19923;-43
2022/08/22 05:12:13;;;;;;;;;;;;;;;;;;2107621;28;20297;-44
2022/08/22 05:13:14;;;;;;;;;;;;;;;;;;2107293;28;20011;-44
2022/08/22 05:14:15;;;;;;;;;;;;;;;;;;2107517;28;19924;-44
2022/08/22 05:15:16;;;;;;;;;;;;;;;;;;2107629;28;20307;-43
2022/08/22 05:16:19;;;;;;;;;;;;;;;;;;2107459;28;19974;-44
2022/08/22 05:17:20;;;;;;;;;;;;;;;;;;2107368;28;19935;-43
2022/08/22 05:18:21;;;;;;;;;;;;;;;;;;2107486;28;19981;-43
2022/08/22 05:19:22;;;;;;;;;;;;;;;;;;2107340;28;20002;-45
2022/08/22 05:20:30;;;;;;;;;;;;;;;;;;2107470;28;20032;-43
2022/08/22 05:21:31;;;;;;;;;;;;;;;;;;2107272;28;19973;-43
2022/08/22 05:22:31;;;;;;;;;;;;;;;;;;2107368;28;19931;-45
2022/08/22 05:23:32;;;;;;;;;;;;;;;;;;2107319;28;19924;-44
2022/08/22 05:24:33;;;;;;;;;;;;;;;;;;2115772;28;19930;-44
2022/08/22 05:25:34;;;;;;;;;;;;;;;;;;2115672;28;19930;-45
2022/08/22 05:26:36;;;;;;;;;;;;;;;;;;2115690;28;19928;-44
2022/08/22 05:27:37;;;;;;;;;;;;;;;;;;2115750;28;19924;-45
2022/08/22 05:28:38;;;;;;;;;;;;;;;;;;2115532;28;20402;-44
2022/08/22 05:29:39;;;;;;;;;;;;;;;;;;2115734;28;19928;-46
2022/08/22 05:30:40;;;;;;;;;;;;;;;;;;2115744;28;19965;-45
2022/08/22 05:31:41;;;;;;;;;;;;;;;;;;2115527;28;19930;-44
2022/08/22 05:32:42;;;;;;;;;;;;;;;;;;2115691;28;20012;-46
2022/08/22 05:33:43;;;;;;;;;;;;;;;;;;2115684;28;19923;-44
2022/08/22 05:34:44;;;;;;;;;;;;;;;;;;2115657;28;19967;-43
2022/08/22 05:35:45;;;;;;;;;;;;;;;;;;2115877;28;19924;-46
2022/08/22 05:36:50;;;;;;;;;;;;;;;;;;2115634;28;20378;-44
2022/08/22 05:37:50;;;;;;;;;;;;;;;;;;2116068;28;19924;-45
2022/08/22 05:38:51;;;;;;;;;;;;;;;;;;2115800;28;19924;-45
2022/08/22 05:39:52;;;;;;;;;;;;;;;;;;2115604;28;19946;-45
2022/08/22 05:40:53;;;;;;;;;;;;;;;;;;2115835;28;19957;-44
2022/08/22 05:41:54;;;;;;;;;;;;;;;;;;2115587;28;20019;-44
2022/08/22 05:42:55;;;;;;;;;;;;;;;;;;2115787;28;19968;-46
2022/08/22 05:43:57;;;;;;;;;;;;;;;;;;2115527;28;20505;-45
2022/08/22 05:44:58;;;;;;;;;;;;;;;;;;2115647;28;19972;-45
2022/08/22 05:45:58;;;;;;;;;;;;;;;;;;2115841;28;20065;-43
2022/08/22 05:46:59;;;;;;;;;;;;;;;;;;2115879;28;19928;-45
2022/08/22 05:48:01;;;;;;;;;;;;;;;;;;2115552;28;20011;-45
2022/08/22 05:49:03;;;;;;;;;;;;;;;;;;2115628;28;20018;-45
2022/08/22 05:50:03;;;;;;;;;;;;;;;;;;2115623;28;20400;-45
2022/08/22 05:51:04;;;;;;;;;;;;;;;;;;2115829;28;19931;-45
2022/08/22 05:52:05;;;;;;;;;;;;;;;;;;2115758;28;20253;-46
2022/08/22 05:53:06;;;;;;;;;;;;;;;;;;2115466;28;19973;-45
2022/08/22 05:54:07;;;;;;;;;;;;;;;;;;2115798;28;19974;-44
2022/08/22 05:55:08;;;;;;;;;;;;;;;;;;2115693;28;20052;-44
2022/08/22 05:56:09;;;;;;;;;;;;;;;;;;2115892;28;20010;-45
2022/08/22 05:57:10;;;;;;;;;;;;;;;;;;2115557;28;20363;-45
2022/08/22 05:58:11;;;;;;;;;;;;;;;;;;2115591;28;20171;-45
2022/08/22 05:59:12;;;;;;;;;;;;;;;;;;2115545;28;19978;-46
2022/08/22 06:00:13;;;;;;;;;;;;;;;;;;2115580;28;20409;-45
2022/08/22 06:01:13;;;;;;;;;;;;;;;;;;2115587;28;19923;-44
2022/08/22 06:02:14;;;;;;;;;;;;;;;;;;2115380;28;20341;-45
2022/08/22 06:03:15;;;;;;;;;;;;;;;;;;2115559;28;20031;-44
2022/08/22 06:04:16;;;;;;;;;;;;;;;;;;2115201;28;20034;-45
2022/08/22 06:05:17;;;;;;;;;;;;;;;;;;2115383;28;19931;-45
2022/08/22 06:06:18;;;;;;;;;;;;;;;;;;2115427;28;19923;-44
2022/08/22 06:07:19;;;;;;;;;;;;;;;;;;2115701;28;19924;-44
2022/08/22 06:08:20;;;;;;;;;;;;;;;;;;2115389;28;19935;-44
2022/08/22 06:09:21;;;;;;;;;;;;;;;;;;2115735;28;19935;-45
2022/08/22 06:10:22;;;;;;;;;;;;;;;;;;2115439;28;19930;-44
2022/08/22 06:11:23;;;;;;;;;;;;;;;;;;2111794;28;20077;-44
2022/08/22 06:12:25;;;;;;;;;;;;;;;;;;2107132;28;20014;-44
2022/08/22 06:13:25;;;;;;;;;;;;;;;;;;2107003;28;20444;-45
2022/08/22 06:14:27;;;;;;;;;;;;;;;;;;2107021;28;19931;-44
2022/08/22 06:15:27;;;;;;;;;;;;;;;;;;2107028;28;19964;-44
2022/08/22 06:16:29;;;;;;;;;;;;;;;;;;2107068;28;19968;-44
2022/08/22 06:17:30;;;;;;;;;;;;;;;;;;2106959;28;19982;-44
2022/08/22 06:18:31;;;;;;;;;;;;;;;;;;2107107;28;19928;-44
2022/08/22 06:19:32;;;;;;;;;;;;;;;;;;2107071;28;19931;-44
2022/08/22 06:20:33;;;;;;;;;;;;;;;;;;2113498;28;20057;-44
2022/08/22 06:21:36;;;;;;;;;;;;;;;;;;2115277;28;19992;-44
2022/08/22 06:22:39;;;;;;;;;;;;;;;;;;2115403;28;19931;-44
2022/08/22 06:23:39;;;;;;;;;;;;;;;;;;2115529;28;20011;-44
2022/08/22 06:24:41;;;;;;;;;;;;;;;;;;2115425;28;19928;-45
2022/08/22 06:25:41;;;;;;;;;;;;;;;;;;2115524;28;20014;-45
2022/08/22 06:26:42;;;;;;;;;;;;;;;;;;2115227;28;19967;-45
2022/08/22 06:27:46;;;;;;;;;;;;;;;;;;2115545;28;19924;-44
2022/08/22 06:28:47;;;;;;;;;;;;;;;;;;2115321;28;20449;-44
2022/08/22 06:29:55;;;;;;;;;;;;;;;;;;2115670;28;19985;-45
2022/08/22 06:30:56;;;;;;;;;;;;;;;;;;2115338;28;19931;-48
2022/08/22 06:31:57;;;;;;;;;;;;;;;;;;2115412;28;20440;-44
2022/08/22 06:32:58;;;;;;;;;;;;;;;;;;2115216;28;19960;-45
2022/08/22 06:34:01;;;;;;;;;;;;;;;;;;2115404;28;19952;-46
2022/08/22 06:35:02;;;;;;;;;;;;;;;;;;2115435;28;19984;-45
2022/08/22 06:37:22;;;;;;;;;;;;;;;;;;2115454;28;20427;-47
2022/08/22 06:38:23;;;;;;;;;;;;;;;;;;2115230;28;19955;-45
2022/08/22 06:39:24;;;;;;;;;;;;;;;;;;2115330;28;19927;-45
2022/08/22 06:40:25;;;;;;;;;;;;;;;;;;2115334;28;20403;-46
2022/08/22 06:41:26;;;;;;;;;;;;;;;;;;2115173;28;19940;-45
2022/08/22 06:42:27;;;;;;;;;;;;;;;;;;2115235;28;19976;-49
2022/08/22 06:43:28;;;;;;;;;;;;;;;;;;2115457;28;20006;-46
2022/08/22 06:44:29;;;;;;;;;;;;;;;;;;2115246;28;19923;-45
2022/08/22 06:45:30;;;;;;;;;;;;;;;;;;2115407;28;20006;-46
2022/08/22 06:46:31;;;;;;;;;;;;;;;;;;2115155;28;19923;-45
2022/08/22 06:47:31;;;;;;;;;;;;;;;;;;2115514;28;19930;-45
2022/08/22 06:48:33;;;;;;;;;;;;;;;;;;2115265;28;19978;-44
2022/08/22 06:49:34;;;;;;;;;;;;;;;;;;2115190;28;20081;-44
2022/08/22 06:50:35;;;;;;;;;;;;;;;;;;2115235;28;19924;-44
2022/08/22 06:51:35;;;;;;;;;;;;;;;;;;2115196;28;19955;-45
2022/08/22 06:52:37;;;;;;;;;;;;;;;;;;2115137;28;20371;-44
2022/08/22 06:53:38;;;;;;;;;;;;;;;;;;2115169;28;20319;-44
2022/08/22 06:54:46;;;;;;;;;;;;;;;;;;2115271;28;20297;-46
2022/08/22 06:55:47;;;;;;;;;;;;;;;;;;2115148;28;19923;-44
2022/08/22 06:56:48;;;;;;;;;;;;;;;;;;2115496;28;19968;-49
2022/08/22 06:57:49;;;;;;;;;;;;;;;;;;2115413;28;20065;-46
2022/08/22 06:58:50;;;;;;;;;;;;;;;;;;2115208;28;20478;-45
2022/08/22 06:59:51;;;;;;;;;;;;;;;;;;2115132;28;20406;-46
2022/08/22 07:00:52;;;;;;;;;;;;;;;;;;2115392;28;19912;-46